createdAt,value
2019-04-06T00:02:28.148Z,6.20
2019-04-06T00:04:54.332Z,6.10
2019-04-06T00:07:20.522Z,6.10
2019-04-06T00:09:46.720Z,6.10
2019-04-06T00:12:12.897Z,6.00
2019-04-06T00:14:39.067Z,6.10
2019-04-06T00:17:05.288Z,6.20
2019-04-06T00:19:31.587Z,6.30
2019-04-06T00:21:57.810Z,6.30
2019-04-06T00:24:24.005Z,6.40
2019-04-06T00:26:50.205Z,6.50
2019-04-06T00:29:16.385Z,6.50
2019-04-06T00:31:50.329Z,6.40
2019-04-06T00:34:16.700Z,6.40
2019-04-06T00:36:42.854Z,6.30
2019-04-06T00:39:09.082Z,6.30
2019-04-06T00:41:35.412Z,6.30
2019-04-06T00:44:01.564Z,6.30
2019-04-06T00:46:27.775Z,6.10
2019-04-06T00:48:54.003Z,6.10
2019-04-06T00:51:20.231Z,6.00
2019-04-06T00:53:46.392Z,5.80
2019-04-06T00:56:12.581Z,5.80
2019-04-06T00:58:39.019Z,5.80
2019-04-06T01:01:05.204Z,5.70
2019-04-06T01:03:31.509Z,5.50
2019-04-06T01:05:57.668Z,5.60
2019-04-06T01:08:23.861Z,5.60
2019-04-06T01:10:50.051Z,5.60
2019-04-06T01:13:16.422Z,5.60
2019-04-06T01:15:42.603Z,5.60
2019-04-06T01:18:08.763Z,5.60
2019-04-06T01:20:34.947Z,5.60
2019-04-06T01:23:01.149Z,5.50
2019-04-06T01:25:27.317Z,5.50
2019-04-06T01:27:53.513Z,5.60
2019-04-06T01:30:19.886Z,5.60
2019-04-06T01:32:46.044Z,5.60
2019-04-06T01:35:12.192Z,5.60
2019-04-06T01:37:38.401Z,5.60
2019-04-06T01:40:05.310Z,5.60
2019-04-06T01:42:31.513Z,5.70
2019-04-06T01:44:59.537Z,5.60
2019-04-06T01:47:25.773Z,5.60
2019-04-06T01:49:51.987Z,5.60
2019-04-06T01:52:18.203Z,5.60
2019-04-06T01:54:44.505Z,5.60
2019-04-06T01:57:10.720Z,5.60
2019-04-06T01:59:36.916Z,5.50
2019-04-06T02:02:07.533Z,5.50
2019-04-06T02:04:33.785Z,5.50
2019-04-06T02:06:59.978Z,5.60
2019-04-06T02:09:26.145Z,5.70
2019-04-06T02:11:52.327Z,5.70
2019-04-06T02:14:18.490Z,5.70
2019-04-06T02:16:44.681Z,5.80
2019-04-06T02:19:10.904Z,5.80
2019-04-06T02:21:37.055Z,5.80
2019-04-06T02:24:03.315Z,5.70
2019-04-06T02:26:31.120Z,5.60
2019-04-06T02:28:57.576Z,5.50
2019-04-06T02:31:28.537Z,5.60
2019-04-06T02:34:11.642Z,5.70
2019-04-06T02:36:54.537Z,5.70
2019-04-06T02:39:25.117Z,5.60
2019-04-06T02:41:53.193Z,5.50
2019-04-06T02:44:19.433Z,5.50
2019-04-06T02:46:45.602Z,5.50
2019-04-06T02:49:11.789Z,5.60
2019-04-06T02:51:37.996Z,5.70
2019-04-06T02:54:04.167Z,5.60
2019-04-06T02:56:45.016Z,5.50
2019-04-06T02:58:58.408Z,5.50
2019-04-06T03:01:24.609Z,5.50
2019-04-06T03:03:50.768Z,5.40
2019-04-06T03:06:16.960Z,5.40
2019-04-06T03:08:43.157Z,5.30
2019-04-06T03:11:09.333Z,5.20
2019-04-06T03:13:35.554Z,5.30
2019-04-06T03:16:02.136Z,5.40
2019-04-06T03:18:28.495Z,5.40
2019-04-06T03:20:54.760Z,5.50
2019-04-06T03:23:24.282Z,5.50
2019-04-06T03:25:49.115Z,5.50
2019-04-06T03:28:15.310Z,5.50
2019-04-06T03:30:41.463Z,5.50
2019-04-06T03:33:07.632Z,5.40
2019-04-06T03:35:33.849Z,5.40
2019-04-06T03:38:00.013Z,5.40
2019-04-06T03:40:26.228Z,5.40
2019-04-06T03:42:52.407Z,5.40
2019-04-06T03:45:18.617Z,5.30
2019-04-06T03:47:44.909Z,5.20
2019-04-06T03:50:11.425Z,5.40
2019-04-06T03:52:40.606Z,5.50
2019-04-06T03:55:07.385Z,5.50
2019-04-06T03:57:33.684Z,5.50
2019-04-06T03:59:59.882Z,5.50
2019-04-06T04:02:26.268Z,5.50
2019-04-06T04:04:52.604Z,5.60
2019-04-06T04:07:19.092Z,5.50
2019-04-06T04:09:45.418Z,5.60
2019-04-06T04:12:11.630Z,5.60
2019-04-06T04:14:37.889Z,5.70
2019-04-06T04:17:04.053Z,5.70
2019-04-06T04:19:30.349Z,5.70
2019-04-06T04:21:56.519Z,5.70
2019-04-06T04:24:22.861Z,5.70
2019-04-06T04:26:49.070Z,5.90
2019-04-06T04:29:15.267Z,6.00
2019-04-06T04:31:41.421Z,6.00
2019-04-06T04:34:08.006Z,6.00
2019-04-06T04:36:34.171Z,6.10
2019-04-06T04:39:00.766Z,6.10
2019-04-06T04:41:26.955Z,6.10
2019-04-06T04:43:53.171Z,6.10
2019-04-06T04:46:19.362Z,6.10
2019-04-06T04:48:45.560Z,6.10
2019-04-06T04:51:11.835Z,6.00
2019-04-06T04:53:38.004Z,5.90
2019-04-06T04:56:04.286Z,5.90
2019-04-06T04:58:30.500Z,6.00
2019-04-06T05:00:56.660Z,6.00
2019-04-06T05:03:23.028Z,6.00
2019-04-06T05:05:49.188Z,6.20
2019-04-06T05:08:15.402Z,6.40
2019-04-06T05:10:42.740Z,6.50
2019-04-06T05:13:08.942Z,6.60
2019-04-06T05:15:54.085Z,6.60
2019-04-06T05:18:20.364Z,6.70
2019-04-06T05:20:47.140Z,6.70
2019-04-06T05:23:13.337Z,6.60
2019-04-06T05:25:39.514Z,6.60
2019-04-06T05:28:05.813Z,6.70
2019-04-06T05:30:32.028Z,6.90
2019-04-06T05:32:58.197Z,6.80
2019-04-06T05:35:24.608Z,6.90
2019-04-06T05:37:50.789Z,7.10
2019-04-06T05:40:16.941Z,7.30
2019-04-06T05:42:43.124Z,7.30
2019-04-06T05:45:09.668Z,7.30
2019-04-06T05:47:35.862Z,7.30
2019-04-06T05:50:04.660Z,7.30
2019-04-06T05:52:30.832Z,7.40
2019-04-06T05:54:57.327Z,7.50
2019-04-06T05:57:23.563Z,7.40
2019-04-06T05:59:49.725Z,7.30
2019-04-06T06:02:15.931Z,7.40
2019-04-06T06:04:42.223Z,7.50
2019-04-06T06:07:08.563Z,7.50
2019-04-06T06:09:34.840Z,7.70
2019-04-06T06:12:01.043Z,7.90
2019-04-06T06:14:27.228Z,7.90
2019-04-06T06:16:53.498Z,8.00
2019-04-06T06:19:19.669Z,8.10
2019-04-06T06:21:45.870Z,8.20
2019-04-06T06:24:12.068Z,8.30
2019-04-06T06:26:38.232Z,8.80
2019-04-06T06:29:04.659Z,9.20
2019-04-06T06:31:30.954Z,9.40
2019-04-06T06:33:57.543Z,9.40
2019-04-06T06:36:23.972Z,9.50
2019-04-06T06:38:50.187Z,9.80
2019-04-06T06:41:16.523Z,9.70
2019-04-06T06:43:45.047Z,9.50
2019-04-06T06:46:10.818Z,9.40
2019-04-06T06:48:36.990Z,9.20
2019-04-06T06:51:03.462Z,9.60
2019-04-06T06:53:29.639Z,9.50
2019-04-06T06:55:55.865Z,9.40
2019-04-06T06:58:25.726Z,9.50
2019-04-06T07:00:50.182Z,9.30
2019-04-06T07:03:16.354Z,9.70
2019-04-06T07:05:42.560Z,9.80
2019-04-06T07:08:08.757Z,9.90
2019-04-06T07:10:34.963Z,10.10
2019-04-06T07:13:01.141Z,9.90
2019-04-06T07:15:27.367Z,9.70
2019-04-06T07:17:53.552Z,9.70
2019-04-06T07:20:19.736Z,9.70
2019-04-06T07:22:45.941Z,9.50
2019-04-06T07:25:12.614Z,9.70
2019-04-06T07:27:39.027Z,9.70
2019-04-06T07:30:05.972Z,9.60
2019-04-06T07:32:32.181Z,9.80
2019-04-06T07:34:58.400Z,10.00
2019-04-06T07:37:24.574Z,10.00
2019-04-06T07:39:50.735Z,9.80
2019-04-06T07:42:16.924Z,10.10
2019-04-06T07:44:43.181Z,10.30
2019-04-06T07:47:09.415Z,10.60
2019-04-06T07:49:35.667Z,10.70
2019-04-06T07:52:01.873Z,10.50
2019-04-06T07:54:28.141Z,10.60
2019-04-06T07:56:54.383Z,10.50
2019-04-06T07:59:20.551Z,10.60
2019-04-06T08:01:48.543Z,10.70
2019-04-06T08:04:14.861Z,10.80
2019-04-06T08:06:41.109Z,11.20
2019-04-06T08:09:07.394Z,11.10
2019-04-06T08:11:33.569Z,11.40
2019-04-06T08:13:59.743Z,11.60
2019-04-06T08:16:26.008Z,11.40
2019-04-06T08:18:52.403Z,11.60
2019-04-06T08:21:19.736Z,12.10
2019-04-06T08:23:46.147Z,12.50
2019-04-06T08:26:12.308Z,12.40
2019-04-06T08:28:38.500Z,13.30
2019-04-06T08:31:04.694Z,13.00
2019-04-06T08:33:30.912Z,13.50
2019-04-06T08:35:57.178Z,13.70
2019-04-06T08:38:23.528Z,13.80
2019-04-06T08:40:49.730Z,14.30
2019-04-06T08:43:15.974Z,14.20
2019-04-06T08:45:42.179Z,14.20
2019-04-06T08:48:08.356Z,14.20
2019-04-06T08:50:34.768Z,13.60
2019-04-06T08:53:00.956Z,13.60
2019-04-06T08:55:27.216Z,13.50
2019-04-06T08:57:53.617Z,13.20
2019-04-06T09:00:20.286Z,13.70
2019-04-06T09:02:46.505Z,14.20
2019-04-06T09:05:13.028Z,14.00
2019-04-06T09:07:40.759Z,14.40
2019-04-06T09:10:09.090Z,16.70
2019-04-06T09:12:36.293Z,18.10
2019-04-06T09:15:05.583Z,19.90
2019-04-06T09:17:31.911Z,21.30
2019-04-06T09:19:58.237Z,20.70
2019-04-06T09:22:24.430Z,21.30
2019-04-06T09:24:50.664Z,22.20
2019-04-06T09:27:16.959Z,23.50
2019-04-06T09:29:43.132Z,21.70
2019-04-06T09:32:09.594Z,20.20
2019-04-06T09:34:35.908Z,21.80
2019-04-06T09:37:02.096Z,22.10
2019-04-06T09:39:28.258Z,23.40
2019-04-06T09:41:54.661Z,23.10
2019-04-06T09:44:26.076Z,23.50
2019-04-06T09:46:59.779Z,23.90
2019-04-06T09:49:27.844Z,23.70
2019-04-06T09:52:12.255Z,22.70
2019-04-06T09:54:40.353Z,23.60
2019-04-06T09:57:08.489Z,25.40
2019-04-06T09:59:48.000Z,23.80
2019-04-06T10:02:21.252Z,23.00
2019-04-06T10:04:58.104Z,23.10
2019-04-06T10:07:37.993Z,24.50
2019-04-06T10:10:12.768Z,24.30
2019-04-06T10:12:49.403Z,25.00
2019-04-06T10:15:17.656Z,23.20
2019-04-06T10:18:04.060Z,22.80
2019-04-06T10:20:37.882Z,22.40
2019-04-06T10:23:08.737Z,23.80
2019-04-06T10:25:48.727Z,24.90
2019-04-06T10:28:25.382Z,23.50
2019-04-06T10:31:11.425Z,23.50
2019-04-06T10:33:39.580Z,24.00
2019-04-06T10:36:10.442Z,24.60
2019-04-06T10:38:38.656Z,24.30
2019-04-06T10:41:18.897Z,24.50
2019-04-06T10:44:03.789Z,25.00
2019-04-06T10:46:48.707Z,24.50
2019-04-06T10:49:16.875Z,25.80
2019-04-06T10:51:53.751Z,24.30
2019-04-06T10:54:36.784Z,24.60
2019-04-06T10:57:04.894Z,23.30
2019-04-06T10:59:38.793Z,23.60
2019-04-06T11:02:23.272Z,23.50
2019-04-06T11:04:51.735Z,23.50
2019-04-06T11:07:31.623Z,22.70
2019-04-06T11:10:08.234Z,24.20
2019-04-06T11:12:38.928Z,19.70
2019-04-06T11:15:10.083Z,19.30
2019-04-06T11:17:54.454Z,19.70
2019-04-06T11:20:22.560Z,20.50
2019-04-06T11:22:56.251Z,21.00
2019-04-06T11:25:35.941Z,21.70
2019-04-06T11:28:15.672Z,20.90
2019-04-06T11:30:49.577Z,22.30
2019-04-06T11:33:26.760Z,20.10
2019-04-06T11:36:00.634Z,21.60
2019-04-06T11:38:51.810Z,21.60
2019-04-06T11:41:28.836Z,21.60
2019-04-06T11:43:58.204Z,22.10
2019-04-06T11:46:29.093Z,23.00
2019-04-06T11:49:03.226Z,22.80
2019-04-06T11:51:31.316Z,20.70
2019-04-06T11:53:59.385Z,20.00
2019-04-06T11:56:33.166Z,19.50
2019-04-06T11:59:01.420Z,20.00
2019-04-06T12:01:31.296Z,19.30
2019-04-06T12:04:03.998Z,18.80
2019-04-06T12:06:48.035Z,17.70
2019-04-06T12:09:31.517Z,17.30
2019-04-06T12:12:08.521Z,17.00
2019-04-06T12:14:51.556Z,16.70
2019-04-06T12:17:33.301Z,16.60
2019-04-06T12:20:13.808Z,17.40
2019-04-06T12:22:51.323Z,16.50
2019-04-06T12:25:35.838Z,16.60
2019-04-06T12:28:12.661Z,17.00
2019-04-06T12:30:43.677Z,16.90
2019-04-06T12:33:14.934Z,16.10
2019-04-06T12:35:43.148Z,16.10
2019-04-06T12:38:11.202Z,15.80
2019-04-06T12:40:56.311Z,16.00
2019-04-06T12:43:42.450Z,16.00
2019-04-06T12:46:27.236Z,16.20
2019-04-06T12:48:56.681Z,16.30
2019-04-06T12:51:36.756Z,16.20
2019-04-06T12:54:18.676Z,16.30
2019-04-06T12:56:49.412Z,16.70
2019-04-06T12:59:35.642Z,17.30
2019-04-06T13:02:20.274Z,17.30
2019-04-06T13:05:05.107Z,17.20
2019-04-06T13:07:36.341Z,16.90
2019-04-06T13:10:15.776Z,16.90
2019-04-06T13:13:00.273Z,17.10
2019-04-06T13:15:34.224Z,17.10
2019-04-06T13:18:08.001Z,16.60
2019-04-06T13:20:52.692Z,16.40
2019-04-06T13:23:22.008Z,16.50
2019-04-06T13:26:06.608Z,16.80
2019-04-06T13:28:34.703Z,16.80
2019-04-06T13:31:19.222Z,16.70
2019-04-06T13:33:50.344Z,16.80
2019-04-06T13:36:35.077Z,16.80
2019-04-06T13:39:09.128Z,16.50
2019-04-06T13:41:52.192Z,16.40
2019-04-06T13:44:26.070Z,16.40
2019-04-06T13:47:04.102Z,16.50
2019-04-06T13:49:35.307Z,16.70
2019-04-06T13:52:18.626Z,16.40
2019-04-06T13:55:03.172Z,16.50
2019-04-06T13:57:31.353Z,16.40
2019-04-06T14:00:16.538Z,16.60
2019-04-06T14:02:56.792Z,16.60
2019-04-06T14:05:24.963Z,16.40
2019-04-06T14:08:09.669Z,16.20
2019-04-06T14:10:54.322Z,16.40
2019-04-06T14:13:22.482Z,16.50
2019-04-06T14:15:50.554Z,16.50
2019-04-06T14:18:18.709Z,16.50
2019-04-06T14:20:52.712Z,16.60
2019-04-06T14:23:21.157Z,16.50
2019-04-06T14:25:50.051Z,16.40
2019-04-06T14:28:24.203Z,16.60
2019-04-06T14:30:53.489Z,16.60
2019-04-06T14:33:27.561Z,16.40
2019-04-06T14:36:01.413Z,16.30
2019-04-06T14:38:32.517Z,16.50
2019-04-06T14:41:12.561Z,16.40
2019-04-06T14:43:46.704Z,16.10
2019-04-06T14:46:17.453Z,16.00
2019-04-06T14:48:48.831Z,16.10
2019-04-06T14:51:17.386Z,16.10
2019-04-06T14:53:45.452Z,16.30
2019-04-06T14:56:30.240Z,16.20
2019-04-06T14:58:58.320Z,16.10
2019-04-06T15:01:45.278Z,16.10
2019-04-06T15:04:05.888Z,15.90
2019-04-06T15:06:39.642Z,15.90
2019-04-06T15:09:25.953Z,16.10
2019-04-06T15:11:54.066Z,16.00
2019-04-06T15:14:37.270Z,16.00
2019-04-06T15:17:05.350Z,16.10
2019-04-06T15:19:50.484Z,16.10
2019-04-06T15:22:18.604Z,16.00
2019-04-06T15:24:55.646Z,16.10
2019-04-06T15:27:29.422Z,16.00
2019-04-06T15:30:00.356Z,16.10
2019-04-06T15:32:34.736Z,15.90
2019-04-06T15:35:03.109Z,15.80
2019-04-06T15:37:34.252Z,15.80
2019-04-06T15:40:11.284Z,15.80
2019-04-06T15:42:39.385Z,15.70
2019-04-06T15:45:19.751Z,15.60
2019-04-06T15:48:04.178Z,15.60
2019-04-06T15:50:43.992Z,15.60
2019-04-06T15:53:20.776Z,15.60
2019-04-06T15:55:52.047Z,15.50
2019-04-06T15:58:31.976Z,15.60
2019-04-06T16:01:17.264Z,15.50
2019-04-06T16:03:48.442Z,15.40
2019-04-06T16:06:32.793Z,15.20
2019-04-06T16:09:17.236Z,15.30
2019-04-06T16:11:45.304Z,15.30
2019-04-06T16:14:16.563Z,15.30
2019-04-06T16:16:47.553Z,15.20
2019-04-06T16:19:18.873Z,15.20
2019-04-06T16:22:05.591Z,15.20
2019-04-06T16:24:33.798Z,15.10
2019-04-06T16:27:01.887Z,15.00
2019-04-06T16:29:30.388Z,14.90
2019-04-06T16:32:13.993Z,14.90
2019-04-06T16:34:42.286Z,14.90
2019-04-06T16:37:16.032Z,14.80
2019-04-06T16:39:46.857Z,14.70
2019-04-06T16:42:23.733Z,14.70
2019-04-06T16:44:51.800Z,14.70
2019-04-06T16:47:19.888Z,14.70
2019-04-06T16:49:53.988Z,14.60
2019-04-06T16:52:30.849Z,14.60
2019-04-06T16:55:10.976Z,14.50
2019-04-06T16:57:42.551Z,14.50
2019-04-06T17:00:19.587Z,14.50
2019-04-06T17:02:46.814Z,14.50
2019-04-06T17:05:20.834Z,14.40
2019-04-06T17:07:48.905Z,14.40
2019-04-06T17:10:33.746Z,14.40
2019-04-06T17:13:01.856Z,14.30
2019-04-06T17:15:48.063Z,14.20
2019-04-06T17:18:16.230Z,14.30
2019-04-06T17:20:53.068Z,14.20
2019-04-06T17:23:21.182Z,14.10
2019-04-06T17:25:49.278Z,13.90
2019-04-06T17:28:26.359Z,13.90
2019-04-06T17:30:54.481Z,13.70
2019-04-06T17:33:22.640Z,13.70
2019-04-06T17:35:50.759Z,13.60
2019-04-06T17:38:21.332Z,13.60
2019-04-06T17:40:55.892Z,13.40
2019-04-06T17:43:40.419Z,13.40
2019-04-06T17:46:26.625Z,13.30
2019-04-06T17:49:11.420Z,13.20
2019-04-06T17:51:39.587Z,13.10
2019-04-06T17:54:24.379Z,13.10
2019-04-06T17:56:55.606Z,13.10
2019-04-06T17:59:26.796Z,13.00
2019-04-06T18:02:11.426Z,12.90
2019-04-06T18:04:42.254Z,12.90
2019-04-06T18:07:10.425Z,12.80
2019-04-06T18:09:44.761Z,12.80
2019-04-06T18:12:20.012Z,12.70
2019-04-06T18:14:46.235Z,12.60
2019-04-06T18:17:15.997Z,12.60
2019-04-06T18:19:43.813Z,12.60
2019-04-06T18:22:10.480Z,12.50
2019-04-06T18:24:36.807Z,12.60
2019-04-06T18:27:03.217Z,12.50
2019-04-06T18:29:30.841Z,12.40
2019-04-06T18:32:14.176Z,12.40
2019-04-06T18:34:40.348Z,12.40
2019-04-06T18:37:08.418Z,12.30
2019-04-06T18:39:34.598Z,12.20
2019-04-06T18:42:01.966Z,12.20
2019-04-06T18:44:28.145Z,12.20
2019-04-06T18:46:54.368Z,12.10
2019-04-06T18:49:20.847Z,12.10
2019-04-06T18:51:47.079Z,12.00
2019-04-06T18:54:13.281Z,12.00
2019-04-06T18:56:39.470Z,12.00
2019-04-06T18:59:06.133Z,12.00
2019-04-06T19:01:33.676Z,11.90
2019-04-06T19:04:01.078Z,11.90
2019-04-06T19:06:27.285Z,11.80
2019-04-06T19:08:53.527Z,11.80
2019-04-06T19:11:19.872Z,11.80
2019-04-06T19:13:46.504Z,11.80
2019-04-06T19:16:12.798Z,11.80
2019-04-06T19:18:41.028Z,11.70
2019-04-06T19:21:07.340Z,11.70
2019-04-06T19:23:33.564Z,11.60
2019-04-06T19:26:00.187Z,11.60
2019-04-06T19:28:26.572Z,11.60
2019-04-06T19:30:52.804Z,11.50
2019-04-06T19:33:25.171Z,11.60
2019-04-06T19:35:47.240Z,11.50
2019-04-06T19:38:13.463Z,11.50
2019-04-06T19:40:40.832Z,11.50
2019-04-06T19:43:07.693Z,11.50
2019-04-06T19:45:33.973Z,11.40
2019-04-06T19:48:00.237Z,11.30
2019-04-06T19:50:27.432Z,11.30
2019-04-06T19:52:53.621Z,11.20
2019-04-06T19:55:20.296Z,11.20
2019-04-06T19:57:47.064Z,11.20
2019-04-06T20:00:15.047Z,11.10
2019-04-06T20:02:41.897Z,11.00
2019-04-06T20:05:08.530Z,11.00
2019-04-06T20:07:34.715Z,11.00
2019-04-06T20:10:01.226Z,11.00
2019-04-06T20:12:27.543Z,10.90
2019-04-06T20:14:53.917Z,10.90
2019-04-06T20:17:20.097Z,10.80
2019-04-06T20:19:48.200Z,10.80
2019-04-06T20:22:14.854Z,10.70
2019-04-06T20:24:41.177Z,10.70
2019-04-06T20:27:07.399Z,10.60
2019-04-06T20:29:34.123Z,10.60
2019-04-06T20:32:01.458Z,10.50
2019-04-06T20:34:28.226Z,10.50
2019-04-06T20:36:54.396Z,10.50
2019-04-06T20:39:20.600Z,10.50
2019-04-06T20:41:46.773Z,10.40
2019-04-06T20:44:13.080Z,10.40
2019-04-06T20:46:41.212Z,10.30
2019-04-06T20:49:07.665Z,10.30
2019-04-06T20:51:34.370Z,10.30
2019-04-06T20:54:00.951Z,10.20
2019-04-06T20:56:27.251Z,10.20
2019-04-06T20:58:53.468Z,10.10
2019-04-06T21:01:19.645Z,10.00
2019-04-06T21:03:45.800Z,10.00
2019-04-06T21:06:12.211Z,9.90
2019-04-06T21:08:39.000Z,9.90
2019-04-06T21:11:05.569Z,9.80
2019-04-06T21:13:31.736Z,9.70
2019-04-06T21:15:57.926Z,9.70
2019-04-06T21:18:24.356Z,9.70
2019-04-06T21:20:50.822Z,9.60
2019-04-06T21:23:17.214Z,9.60
2019-04-06T21:25:43.516Z,9.50
2019-04-06T21:28:10.033Z,9.50
2019-04-06T21:30:36.787Z,9.50
2019-04-06T21:33:03.341Z,9.40
2019-04-06T21:35:30.100Z,9.40
2019-04-06T21:37:56.285Z,9.40
2019-04-06T21:40:22.525Z,9.40
2019-04-06T21:42:48.732Z,9.40
2019-04-06T21:45:15.268Z,9.30
2019-04-06T21:47:41.590Z,9.40
2019-04-06T21:50:08.090Z,9.40
2019-04-06T21:52:35.267Z,9.30
2019-04-06T21:55:02.439Z,9.20
2019-04-06T21:57:28.696Z,9.20
2019-04-06T21:59:55.134Z,9.20
2019-04-06T22:02:21.751Z,9.20
2019-04-06T22:04:48.403Z,9.10
2019-04-06T22:07:14.675Z,9.20
2019-04-06T22:09:41.276Z,9.10
2019-04-06T22:12:08.210Z,9.10
2019-04-06T22:14:34.774Z,9.10
2019-04-06T22:17:02.718Z,9.00
2019-04-06T22:19:29.030Z,9.00
2019-04-06T22:21:55.465Z,9.00
2019-04-06T22:24:21.744Z,9.00
2019-04-06T22:26:47.930Z,8.90
2019-04-06T22:29:14.116Z,8.80
2019-04-06T22:31:40.280Z,8.80
2019-04-06T22:34:06.865Z,8.70
2019-04-06T22:36:33.248Z,8.60
2019-04-06T22:38:59.480Z,8.70
2019-04-06T22:41:26.272Z,8.60
2019-04-06T22:43:53.435Z,8.60
2019-04-06T22:46:20.171Z,8.50
2019-04-06T22:48:46.890Z,8.50
2019-04-06T22:51:13.872Z,8.40
2019-04-06T22:53:41.115Z,8.40
2019-04-06T22:56:07.273Z,8.40
2019-04-06T22:58:33.459Z,8.30
2019-04-06T23:01:07.866Z,8.30
2019-04-06T23:03:47.823Z,8.20
2019-04-06T23:06:16.331Z,8.20
2019-04-06T23:08:42.591Z,8.20
2019-04-06T23:11:09.046Z,8.10
2019-04-06T23:13:35.224Z,8.10
2019-04-06T23:16:01.407Z,7.90
2019-04-06T23:18:27.624Z,7.80
2019-04-06T23:20:53.922Z,7.80
2019-04-06T23:23:20.142Z,7.80
2019-04-06T23:25:46.494Z,7.70
2019-04-06T23:28:12.923Z,7.60
2019-04-06T23:30:39.712Z,7.50
2019-04-06T23:33:05.984Z,7.40
2019-04-06T23:35:32.946Z,7.40
2019-04-06T23:37:59.159Z,7.50
2019-04-06T23:40:25.939Z,7.40
2019-04-06T23:42:52.600Z,7.40
2019-04-06T23:45:18.873Z,7.40
2019-04-06T23:47:45.483Z,7.30
2019-04-06T23:50:12.308Z,7.30
2019-04-06T23:52:38.505Z,7.10
2019-04-06T23:55:06.653Z,7.10
2019-04-06T23:57:32.852Z,6.90
2019-04-06T23:59:59.321Z,6.80
